createdAt,value
2022-11-09T00:01:32.765Z,10.80
2022-11-09T00:04:06.889Z,10.80
2022-11-09T00:06:37.898Z,10.90
2022-11-09T00:09:09.815Z,10.90
2022-11-09T00:11:40.242Z,10.90
2022-11-09T00:14:09.997Z,10.90
2022-11-09T00:16:39.767Z,10.90
2022-11-09T00:19:13.240Z,11.00
2022-11-09T00:21:43.134Z,11.00
2022-11-09T00:24:13.455Z,11.00
2022-11-09T00:26:43.223Z,11.10
2022-11-09T00:29:13.272Z,11.10
2022-11-09T00:31:43.310Z,11.10
2022-11-09T00:34:15.697Z,11.20
2022-11-09T00:36:45.474Z,11.20
2022-11-09T00:39:15.263Z,11.20
2022-11-09T00:41:45.076Z,11.20
2022-11-09T00:44:15.026Z,11.20
2022-11-09T00:46:44.825Z,11.20
2022-11-09T00:49:17.229Z,11.20
2022-11-09T00:51:46.978Z,11.10
2022-11-09T00:54:17.607Z,11.10
2022-11-09T00:56:47.366Z,11.10
2022-11-09T00:59:17.334Z,11.10
2022-11-09T01:01:47.118Z,11.20
2022-11-09T01:04:19.541Z,11.20
2022-11-09T01:06:49.385Z,11.20
2022-11-09T01:09:19.219Z,11.30
2022-11-09T01:11:49.013Z,11.30
2022-11-09T01:14:18.957Z,11.20
2022-11-09T01:16:48.736Z,11.20
2022-11-09T01:19:21.083Z,11.20
2022-11-09T01:21:50.864Z,11.20
2022-11-09T01:24:20.630Z,11.20
2022-11-09T01:26:51.018Z,11.30
2022-11-09T01:29:20.784Z,11.30
2022-11-09T01:31:51.472Z,11.30
2022-11-09T01:34:23.981Z,11.30
2022-11-09T01:36:54.169Z,11.30
2022-11-09T01:39:24.377Z,11.20
2022-11-09T01:41:54.225Z,11.30
2022-11-09T01:44:24.160Z,11.30
2022-11-09T01:46:57.579Z,11.30
2022-11-09T01:49:41.035Z,11.30
2022-11-09T01:52:14.045Z,11.30
2022-11-09T01:54:46.715Z,11.30
2022-11-09T01:57:21.941Z,11.20
2022-11-09T01:59:57.407Z,11.20
2022-11-09T02:02:27.489Z,11.10
2022-11-09T02:05:03.645Z,11.10
2022-11-09T02:07:33.545Z,11.20
2022-11-09T02:10:09.704Z,11.20
2022-11-09T02:12:39.558Z,11.10
2022-11-09T02:15:12.135Z,11.00
2022-11-09T02:17:43.256Z,10.90
2022-11-09T02:20:17.794Z,10.80
2022-11-09T02:22:48.241Z,10.80
2022-11-09T02:25:19.043Z,10.80
2022-11-09T02:27:49.201Z,10.80
2022-11-09T02:30:22.071Z,10.80
2022-11-09T02:32:51.867Z,10.80
2022-11-09T02:35:24.245Z,10.80
2022-11-09T02:37:54.109Z,10.90
2022-11-09T02:40:29.041Z,11.00
2022-11-09T02:43:00.013Z,11.20
2022-11-09T02:45:30.380Z,11.30
2022-11-09T02:48:00.184Z,11.40
2022-11-09T02:50:32.643Z,11.50
2022-11-09T02:53:02.445Z,11.50
2022-11-09T02:55:32.190Z,11.50
2022-11-09T02:58:02.248Z,11.60
2022-11-09T03:00:32.079Z,11.60
2022-11-09T03:03:01.846Z,11.60
2022-11-09T03:05:34.178Z,11.60
2022-11-09T03:08:04.789Z,11.60
2022-11-09T03:10:34.545Z,11.50
2022-11-09T03:13:04.337Z,11.50
2022-11-09T03:15:35.279Z,11.40
2022-11-09T03:18:05.060Z,11.30
2022-11-09T03:20:37.416Z,11.20
2022-11-09T03:23:07.332Z,11.20
2022-11-09T03:25:37.193Z,11.20
2022-11-09T03:28:09.045Z,11.10
2022-11-09T03:30:38.781Z,11.00
2022-11-09T03:33:12.630Z,10.90
2022-11-09T03:35:44.940Z,10.80
2022-11-09T03:38:14.808Z,10.80
2022-11-09T03:40:44.604Z,10.80
2022-11-09T03:43:14.320Z,10.80
2022-11-09T03:45:44.238Z,10.80
2022-11-09T03:48:14.030Z,10.70
2022-11-09T03:50:46.383Z,10.60
2022-11-09T03:53:16.417Z,10.60
2022-11-09T03:55:46.416Z,10.60
2022-11-09T03:58:16.116Z,10.70
2022-11-09T04:00:46.008Z,10.70
2022-11-09T04:03:15.785Z,10.70
2022-11-09T04:05:48.178Z,10.70
2022-11-09T04:08:17.930Z,10.70
2022-11-09T04:10:47.748Z,10.60
2022-11-09T04:13:17.882Z,10.60
2022-11-09T04:15:48.061Z,10.60
2022-11-09T04:18:19.050Z,10.60
2022-11-09T04:20:51.415Z,10.70
2022-11-09T04:23:21.505Z,10.70
2022-11-09T04:25:51.590Z,10.60
2022-11-09T04:28:21.781Z,10.60
2022-11-09T04:30:51.644Z,10.60
2022-11-09T04:33:21.784Z,10.60
2022-11-09T04:35:54.545Z,10.50
2022-11-09T04:38:24.293Z,10.50
2022-11-09T04:40:54.061Z,10.50
2022-11-09T04:43:23.993Z,10.50
2022-11-09T04:45:53.864Z,10.40
2022-11-09T04:48:23.961Z,10.40
2022-11-09T04:51:01.057Z,10.40
2022-11-09T04:53:31.326Z,10.40
2022-11-09T04:56:01.424Z,10.40
2022-11-09T04:58:31.176Z,10.40
2022-11-09T05:01:05.640Z,10.30
2022-11-09T05:03:35.349Z,10.30
2022-11-09T05:06:28.120Z,10.20
2022-11-09T05:08:58.630Z,10.30
2022-11-09T05:11:28.487Z,10.30
2022-11-09T05:13:58.267Z,10.20
2022-11-09T05:16:28.260Z,10.30
2022-11-09T05:18:58.298Z,10.20
2022-11-09T05:21:30.745Z,10.20
2022-11-09T05:24:00.763Z,10.20
2022-11-09T05:26:32.359Z,10.20
2022-11-09T05:29:03.452Z,10.20
2022-11-09T05:31:33.400Z,10.20
2022-11-09T05:34:03.616Z,10.30
2022-11-09T05:36:36.242Z,10.30
2022-11-09T05:39:06.239Z,10.30
2022-11-09T05:41:36.028Z,10.30
2022-11-09T05:44:05.875Z,10.30
2022-11-09T05:46:35.754Z,10.30
2022-11-09T05:49:05.595Z,10.40
2022-11-09T05:51:37.948Z,10.40
2022-11-09T05:54:07.989Z,10.40
2022-11-09T05:56:37.765Z,10.30
2022-11-09T05:59:07.518Z,10.30
2022-11-09T06:01:37.405Z,10.30
2022-11-09T06:04:07.600Z,10.40
2022-11-09T06:06:39.971Z,10.40
2022-11-09T06:09:09.936Z,10.40
2022-11-09T06:11:39.713Z,10.40
2022-11-09T06:14:09.496Z,10.40
2022-11-09T06:16:39.576Z,10.40
2022-11-09T06:19:09.426Z,10.40
2022-11-09T06:21:41.733Z,10.50
2022-11-09T06:24:12.068Z,10.50
2022-11-09T06:26:41.878Z,10.50
2022-11-09T06:29:12.321Z,10.50
2022-11-09T06:31:43.078Z,10.50
2022-11-09T06:34:12.881Z,10.50
2022-11-09T06:36:45.355Z,10.60
2022-11-09T06:39:15.168Z,10.60
2022-11-09T06:41:47.597Z,10.50
2022-11-09T06:44:17.998Z,10.50
2022-11-09T06:46:47.944Z,10.50
2022-11-09T06:49:17.711Z,10.40
2022-11-09T06:51:50.393Z,10.50
2022-11-09T06:54:20.158Z,10.50
2022-11-09T06:56:50.474Z,10.50
2022-11-09T06:59:20.221Z,10.50
2022-11-09T07:01:50.132Z,10.50
2022-11-09T07:04:20.019Z,10.60
2022-11-09T07:06:52.377Z,10.50
2022-11-09T07:09:22.262Z,10.50
2022-11-09T07:11:52.088Z,10.50
2022-11-09T07:14:21.912Z,10.40
2022-11-09T07:16:51.725Z,10.50
2022-11-09T07:19:21.560Z,10.50
2022-11-09T07:21:53.975Z,10.40
2022-11-09T07:24:23.923Z,10.50
2022-11-09T07:26:53.789Z,10.50
2022-11-09T07:29:23.614Z,10.50
2022-11-09T07:31:53.455Z,10.60
2022-11-09T07:34:23.241Z,10.70
2022-11-09T07:36:56.202Z,10.70
2022-11-09T07:39:26.036Z,10.80
2022-11-09T07:41:56.332Z,10.80
2022-11-09T07:44:26.117Z,10.80
2022-11-09T07:46:56.033Z,10.90
2022-11-09T07:49:25.940Z,10.90
2022-11-09T07:51:58.358Z,10.90
2022-11-09T07:54:28.213Z,10.90
2022-11-09T07:56:58.001Z,11.00
2022-11-09T07:59:28.065Z,11.10
2022-11-09T08:01:57.886Z,11.10
2022-11-09T08:04:27.900Z,11.10
2022-11-09T08:07:00.537Z,11.20
2022-11-09T08:09:31.056Z,11.20
2022-11-09T08:12:00.868Z,11.20
2022-11-09T08:14:30.651Z,11.20
2022-11-09T08:17:00.382Z,11.30
2022-11-09T08:19:30.101Z,11.40
2022-11-09T08:22:03.011Z,11.40
2022-11-09T08:24:32.841Z,11.40
2022-11-09T08:27:02.605Z,11.40
2022-11-09T08:29:32.500Z,11.40
2022-11-09T08:32:02.343Z,11.40
2022-11-09T08:34:32.149Z,11.40
2022-11-09T08:37:05.451Z,11.50
2022-11-09T08:39:35.267Z,11.40
2022-11-09T08:42:05.014Z,11.40
2022-11-09T08:44:34.757Z,11.40
2022-11-09T08:47:04.584Z,11.40
2022-11-09T08:49:34.851Z,11.40
2022-11-09T08:52:07.570Z,11.40
2022-11-09T08:54:39.037Z,11.50
2022-11-09T08:57:08.873Z,11.50
2022-11-09T08:59:38.825Z,11.50
2022-11-09T09:02:08.889Z,11.60
2022-11-09T09:04:38.719Z,11.50
2022-11-09T09:07:11.487Z,11.60
2022-11-09T09:09:41.536Z,11.60
2022-11-09T09:12:12.398Z,11.70
2022-11-09T09:14:42.178Z,11.70
2022-11-09T09:17:12.906Z,11.80
2022-11-09T09:19:47.315Z,11.90
2022-11-09T09:22:22.451Z,11.90
2022-11-09T09:24:52.304Z,11.90
2022-11-09T09:27:22.102Z,11.90
2022-11-09T09:29:51.980Z,11.90
2022-11-09T09:32:21.821Z,12.00
2022-11-09T09:34:51.641Z,12.00
2022-11-09T09:37:24.265Z,12.00
2022-11-09T09:39:54.056Z,12.00
2022-11-09T09:42:30.235Z,12.10
2022-11-09T09:45:05.029Z,12.20
2022-11-09T09:47:49.115Z,12.30
2022-11-09T09:50:24.234Z,12.30
2022-11-09T09:53:23.232Z,12.40
2022-11-09T09:55:57.739Z,12.50
2022-11-09T09:58:29.631Z,12.60
2022-11-09T10:01:07.512Z,12.70
2022-11-09T10:03:37.433Z,12.70
2022-11-09T10:06:18.934Z,12.80
2022-11-09T10:09:01.643Z,12.90
2022-11-09T10:11:39.324Z,13.10
2022-11-09T10:14:47.153Z,13.00
2022-11-09T10:17:28.511Z,13.00
2022-11-09T10:20:09.425Z,13.10
2022-11-09T10:22:51.212Z,13.20
2022-11-09T10:25:50.248Z,13.30
2022-11-09T10:28:20.212Z,13.30
2022-11-09T10:30:50.566Z,13.40
2022-11-09T10:33:23.194Z,13.40
2022-11-09T10:36:08.329Z,13.50
2022-11-09T10:38:42.976Z,13.50
2022-11-09T10:41:18.870Z,13.50
2022-11-09T10:43:48.715Z,13.60
2022-11-09T10:46:18.664Z,13.70
2022-11-09T10:48:48.519Z,13.60
2022-11-09T10:51:35.919Z,13.80
2022-11-09T10:54:18.224Z,13.80
2022-11-09T10:57:05.410Z,13.90
2022-11-09T10:59:48.570Z,14.00
2022-11-09T11:02:44.131Z,14.10
2022-11-09T11:05:37.457Z,14.20
2022-11-09T11:08:23.730Z,14.20
2022-11-09T11:11:06.593Z,14.20
2022-11-09T11:13:45.566Z,14.10
2022-11-09T11:16:28.016Z,14.20
2022-11-09T11:18:58.087Z,14.20
2022-11-09T11:21:29.051Z,14.30
2022-11-09T11:24:25.899Z,14.20
2022-11-09T11:27:04.259Z,14.30
2022-11-09T11:29:45.943Z,14.30
2022-11-09T11:32:18.889Z,14.30
2022-11-09T11:35:05.301Z,14.40
2022-11-09T11:37:47.154Z,14.50
2022-11-09T11:40:23.151Z,14.60
2022-11-09T11:43:17.785Z,14.40
2022-11-09T11:45:56.715Z,14.50
2022-11-09T11:48:58.822Z,14.50
2022-11-09T11:51:37.411Z,14.50
2022-11-09T11:54:17.245Z,14.50
2022-11-09T11:56:51.484Z,14.50
2022-11-09T11:59:48.908Z,14.50
2022-11-09T12:02:50.763Z,14.50
2022-11-09T12:05:55.842Z,14.50
2022-11-09T12:08:31.623Z,14.50
2022-11-09T12:11:10.190Z,14.60
2022-11-09T12:14:00.413Z,14.60
2022-11-09T12:16:39.836Z,14.50
2022-11-09T12:19:35.923Z,14.50
2022-11-09T12:22:13.187Z,14.50
2022-11-09T12:24:50.194Z,14.40
2022-11-09T12:27:41.366Z,14.40
2022-11-09T12:30:17.853Z,14.40
2022-11-09T12:32:53.686Z,14.30
2022-11-09T12:35:34.974Z,14.30
2022-11-09T12:38:07.866Z,14.30
2022-11-09T12:40:42.149Z,14.30
2022-11-09T12:43:19.617Z,14.30
2022-11-09T12:45:52.710Z,14.40
2022-11-09T12:48:26.810Z,14.30
2022-11-09T12:51:00.818Z,14.30
2022-11-09T12:53:33.227Z,14.30
2022-11-09T12:56:05.598Z,14.40
2022-11-09T12:58:38.071Z,14.30
2022-11-09T13:01:09.780Z,14.40
2022-11-09T13:03:43.195Z,14.40
2022-11-09T13:06:22.357Z,14.40
2022-11-09T13:09:04.696Z,14.40
2022-11-09T13:11:40.598Z,14.40
2022-11-09T13:14:38.605Z,14.40
2022-11-09T13:17:38.542Z,14.50
2022-11-09T13:20:54.659Z,14.50
2022-11-09T13:24:02.209Z,14.50
2022-11-09T13:27:04.171Z,14.50
2022-11-09T13:29:56.432Z,14.50
2022-11-09T13:32:28.650Z,14.70
2022-11-09T13:34:59.683Z,14.60
2022-11-09T13:37:57.781Z,14.70
2022-11-09T13:40:51.566Z,14.70
2022-11-09T13:43:27.714Z,14.70
2022-11-09T13:45:59.920Z,14.60
2022-11-09T13:48:43.481Z,14.70
2022-11-09T13:51:16.150Z,14.70
2022-11-09T13:53:57.857Z,14.70
2022-11-09T13:56:37.492Z,14.70
2022-11-09T13:59:15.895Z,14.70
2022-11-09T14:01:50.535Z,14.70
2022-11-09T14:04:25.550Z,14.70
2022-11-09T14:07:05.353Z,14.70
2022-11-09T14:09:44.356Z,14.60
2022-11-09T14:12:29.041Z,14.60
2022-11-09T14:15:12.045Z,14.50
2022-11-09T14:17:51.325Z,14.50
2022-11-09T14:20:29.844Z,14.50
2022-11-09T14:22:59.652Z,14.60
2022-11-09T14:25:30.974Z,14.50
2022-11-09T14:28:03.336Z,14.50
2022-11-09T14:30:34.443Z,14.50
2022-11-09T14:33:04.169Z,14.50
2022-11-09T14:35:35.162Z,14.40
2022-11-09T14:38:17.925Z,14.40
2022-11-09T14:40:49.708Z,14.40
2022-11-09T14:43:29.216Z,14.40
2022-11-09T14:46:01.092Z,14.40
2022-11-09T14:48:33.067Z,14.30
2022-11-09T14:51:05.681Z,14.30
2022-11-09T14:53:38.838Z,14.20
2022-11-09T14:56:10.788Z,14.20
2022-11-09T14:58:45.863Z,14.10
2022-11-09T15:01:24.713Z,14.10
2022-11-09T15:04:12.684Z,13.90
2022-11-09T15:06:51.204Z,13.80
2022-11-09T15:09:24.150Z,13.70
2022-11-09T15:11:54.552Z,13.70
2022-11-09T15:14:31.602Z,13.70
2022-11-09T15:17:06.605Z,13.60
2022-11-09T15:19:41.057Z,13.50
2022-11-09T15:22:43.134Z,13.50
2022-11-09T15:25:25.735Z,13.50
2022-11-09T15:28:05.459Z,13.50
2022-11-09T15:30:45.617Z,13.50
2022-11-09T15:33:24.367Z,13.50
2022-11-09T15:35:56.401Z,13.40
2022-11-09T15:38:39.041Z,13.40
2022-11-09T15:41:16.937Z,13.40
2022-11-09T15:43:47.432Z,13.40
2022-11-09T15:46:22.974Z,13.30
2022-11-09T15:48:52.934Z,13.30
2022-11-09T15:51:23.183Z,13.30
2022-11-09T15:53:52.988Z,13.30
2022-11-09T15:56:25.079Z,13.30
2022-11-09T15:58:54.881Z,13.30
2022-11-09T16:01:27.557Z,13.30
2022-11-09T16:03:57.385Z,13.30
2022-11-09T16:06:27.428Z,13.30
2022-11-09T16:08:57.338Z,13.30
2022-11-09T16:11:27.120Z,13.20
2022-11-09T16:13:56.907Z,13.20
2022-11-09T16:16:29.538Z,13.20
2022-11-09T16:19:00.030Z,13.10
2022-11-09T16:21:29.844Z,13.20
2022-11-09T16:23:59.637Z,13.20
2022-11-09T16:26:30.159Z,13.10
2022-11-09T16:28:59.941Z,13.10
2022-11-09T16:31:50.978Z,13.10
2022-11-09T16:34:22.040Z,13.00
2022-11-09T16:36:56.819Z,12.90
2022-11-09T16:39:28.749Z,12.80
2022-11-09T16:41:58.655Z,12.90
2022-11-09T16:44:28.492Z,12.90
2022-11-09T16:47:00.914Z,12.80
2022-11-09T16:49:30.674Z,12.90
2022-11-09T16:52:00.574Z,12.90
2022-11-09T16:54:30.364Z,12.80
2022-11-09T16:57:00.419Z,12.90
2022-11-09T16:59:30.200Z,12.90
2022-11-09T17:02:03.031Z,13.00
2022-11-09T17:04:32.901Z,13.00
2022-11-09T17:07:02.855Z,13.10
2022-11-09T17:09:36.143Z,13.00
2022-11-09T17:12:07.296Z,13.00
2022-11-09T17:14:37.099Z,13.00
2022-11-09T17:17:09.436Z,12.90
2022-11-09T17:19:39.321Z,12.90
2022-11-09T17:22:09.078Z,13.00
2022-11-09T17:24:38.884Z,13.00
2022-11-09T17:27:10.651Z,12.90
2022-11-09T17:29:41.104Z,12.90
2022-11-09T17:32:13.707Z,12.90
2022-11-09T17:34:43.587Z,12.90
2022-11-09T17:37:13.340Z,12.90
2022-11-09T17:39:43.067Z,12.90
2022-11-09T17:42:12.817Z,12.90
2022-11-09T17:44:42.584Z,12.90
2022-11-09T17:47:15.028Z,12.80
2022-11-09T17:49:44.858Z,12.90
2022-11-09T17:52:14.611Z,12.80
2022-11-09T17:54:44.394Z,12.80
2022-11-09T17:57:14.387Z,12.80
2022-11-09T17:59:44.116Z,12.80
2022-11-09T18:02:18.549Z,12.80
2022-11-09T18:04:48.176Z,12.80
2022-11-09T18:07:18.236Z,12.80
2022-11-09T18:09:48.033Z,12.70
2022-11-09T18:12:17.774Z,12.70
2022-11-09T18:14:47.543Z,12.70
2022-11-09T18:17:19.867Z,12.70
2022-11-09T18:19:49.633Z,12.70
2022-11-09T18:22:19.373Z,12.70
2022-11-09T18:24:49.128Z,12.60
2022-11-09T18:27:18.868Z,12.60
2022-11-09T18:29:48.612Z,12.50
2022-11-09T18:32:20.972Z,12.50
2022-11-09T18:34:50.797Z,12.40
2022-11-09T18:37:20.594Z,12.50
2022-11-09T18:39:50.373Z,12.40
2022-11-09T18:42:20.332Z,12.40
2022-11-09T18:44:50.052Z,12.40
2022-11-09T18:47:23.714Z,12.40
2022-11-09T18:49:53.567Z,12.40
2022-11-09T18:52:23.476Z,12.40
2022-11-09T18:54:53.244Z,12.40
2022-11-09T18:57:23.113Z,12.30
2022-11-09T18:59:52.897Z,12.30
2022-11-09T19:02:25.233Z,12.30
2022-11-09T19:04:55.076Z,12.30
2022-11-09T19:07:24.883Z,12.30
2022-11-09T19:09:56.711Z,12.30
2022-11-09T19:12:26.914Z,12.30
2022-11-09T19:14:56.709Z,12.20
2022-11-09T19:17:29.107Z,12.30
2022-11-09T19:19:58.865Z,12.30
2022-11-09T19:22:29.186Z,12.20
2022-11-09T19:24:58.906Z,12.30
2022-11-09T19:27:28.946Z,12.20
2022-11-09T19:29:58.692Z,12.20
2022-11-09T19:32:31.055Z,12.20
2022-11-09T19:35:00.827Z,12.20
2022-11-09T19:37:30.658Z,12.20
2022-11-09T19:40:00.498Z,12.20
2022-11-09T19:42:30.262Z,12.20
2022-11-09T19:45:00.058Z,12.20
2022-11-09T19:47:32.392Z,12.20
2022-11-09T19:50:02.153Z,12.20
2022-11-09T19:52:31.887Z,12.20
2022-11-09T19:55:02.247Z,12.20
2022-11-09T19:57:32.219Z,12.20
2022-11-09T20:00:01.953Z,12.30
2022-11-09T20:02:34.500Z,12.30
2022-11-09T20:05:04.250Z,12.30
2022-11-09T20:07:35.223Z,12.30
2022-11-09T20:10:06.649Z,12.30
2022-11-09T20:12:49.022Z,12.30
2022-11-09T20:15:19.355Z,12.30
2022-11-09T20:17:51.741Z,12.30
2022-11-09T20:20:21.656Z,12.40
2022-11-09T20:22:51.761Z,12.40
2022-11-09T20:25:21.539Z,12.40
2022-11-09T20:27:51.379Z,12.30
2022-11-09T20:30:21.681Z,12.30
2022-11-09T20:32:54.005Z,12.30
2022-11-09T20:35:23.788Z,12.20
2022-11-09T20:37:53.792Z,12.20
2022-11-09T20:40:23.559Z,12.20
2022-11-09T20:42:53.326Z,12.20
2022-11-09T20:45:23.097Z,12.10
2022-11-09T20:48:10.568Z,12.10
2022-11-09T20:50:45.510Z,12.00
2022-11-09T20:53:15.881Z,12.00
2022-11-09T20:55:45.860Z,12.00
2022-11-09T20:58:16.495Z,12.00
2022-11-09T21:00:46.265Z,11.90
2022-11-09T21:03:18.683Z,11.90
2022-11-09T21:05:51.717Z,11.80
2022-11-09T21:08:24.474Z,11.80
2022-11-09T21:10:54.854Z,11.70
2022-11-09T21:13:25.290Z,11.60
2022-11-09T21:15:55.060Z,11.60
2022-11-09T21:18:27.419Z,11.60
2022-11-09T21:20:57.224Z,11.60
2022-11-09T21:23:39.461Z,11.50
2022-11-09T21:26:24.331Z,11.50
2022-11-09T21:29:06.574Z,11.50
2022-11-09T21:31:36.420Z,11.40
2022-11-09T21:34:08.769Z,11.50
2022-11-09T21:36:38.498Z,11.50
2022-11-09T21:39:08.361Z,11.40
2022-11-09T21:41:40.755Z,11.40
2022-11-09T21:44:12.172Z,11.40
2022-11-09T21:46:43.868Z,11.40
2022-11-09T21:49:16.688Z,11.50
2022-11-09T21:51:46.479Z,11.40
2022-11-09T21:54:16.296Z,11.40
2022-11-09T21:56:46.322Z,11.40
2022-11-09T21:59:16.285Z,11.40
2022-11-09T22:01:46.738Z,11.40
2022-11-09T22:04:19.414Z,11.40
2022-11-09T22:06:49.381Z,11.40
2022-11-09T22:09:20.969Z,11.40
2022-11-09T22:12:03.288Z,11.40
2022-11-09T22:14:45.567Z,11.40
2022-11-09T22:17:15.558Z,11.40
2022-11-09T22:20:00.391Z,11.40
2022-11-09T22:22:30.591Z,11.40
2022-11-09T22:25:00.661Z,11.40
2022-11-09T22:27:32.549Z,11.40
2022-11-09T22:30:02.393Z,11.40
2022-11-09T22:32:32.196Z,11.40
2022-11-09T22:35:04.604Z,11.40
2022-11-09T22:37:34.356Z,11.40
2022-11-09T22:40:04.079Z,11.40
2022-11-09T22:42:33.821Z,11.40
2022-11-09T22:45:03.580Z,11.40
2022-11-09T22:47:33.356Z,11.40
2022-11-09T22:50:06.055Z,11.40
2022-11-09T22:52:35.852Z,11.50
2022-11-09T22:55:05.799Z,11.50
2022-11-09T22:57:37.899Z,11.50
2022-11-09T23:00:10.814Z,11.50
2022-11-09T23:02:40.580Z,11.50
2022-11-09T23:05:13.177Z,11.50
2022-11-09T23:07:43.331Z,11.50
2022-11-09T23:10:13.202Z,11.50
2022-11-09T23:12:43.112Z,11.40
2022-11-09T23:15:13.377Z,11.40
2022-11-09T23:17:55.710Z,11.40
2022-11-09T23:20:35.338Z,11.40
2022-11-09T23:23:05.795Z,11.40
2022-11-09T23:25:48.057Z,11.40
2022-11-09T23:28:18.154Z,11.40
2022-11-09T23:30:48.014Z,11.40
2022-11-09T23:33:17.769Z,11.40
2022-11-09T23:35:50.182Z,11.40
2022-11-09T23:38:19.965Z,11.40
2022-11-09T23:40:49.819Z,11.40
2022-11-09T23:43:19.899Z,11.40
2022-11-09T23:45:50.021Z,11.40
2022-11-09T23:48:22.046Z,11.40
2022-11-09T23:50:54.398Z,11.40
2022-11-09T23:53:24.529Z,11.40
2022-11-09T23:55:54.594Z,11.40
2022-11-09T23:58:24.359Z,11.40
